الصفحة الرئيسية
METAR-TAF:

METAR-TAF

مطار :

هونيارا, جوادالكانال, جزر سولومون

دائرة عرض: 09-25S, خط طول: 160-03E, ارتفاع: 8 متر

مراقبة الطقس الحالي

تاريخ ووقت الإصدار 35 دقيقة قبل الساعة 04:00UTC
ريح 14 عقدة من الغرب/الجنوب الغربي
درجة الحرارة 35°درجة مئوية
الرطوبة 50%
ضغط 1000 hPa
الرؤية 10 كم أو أكثر
غيوم قليلة على ارتفاع 2200 قدم
غيوم متفرقة على ارتفاع 30000 قدم

METAR: AGGH 180400Z 25014KT 9999 FEW022 SCT300 35/23 Q1000

زمن: 15:35 (04:35 UTC)

توقعات

تاريخ ووقت الإصدار 5ساعات و 25 دقيقة قبل الساعة 23:10UTC
التوقعات صالحة من18 الساعة 00 UTC إلى 18 الساعة 24 UTC
ريح 15 عقدة من الشمال الغربي
الرؤية: 1004 متر
غيوم قليلة على ارتفاع 1800 قدم
غيوم مفككة على ارتفاع 10000 قدم

TAF: AGGH 172310Z 1800/1824 32015KT 9999 FEW018 BKN100 T 31 32 31 28 Q 1005 1003 1002 1004

أرصاد الطقس والتوقعات من أكثر من 4000 مطار (تقارير الطقس للمطار METAR والتنبؤ بالطقس بالمطارTAF).

المحطات المتاحة هي النقط الصفراء والحمراء على الخريطة.

حرك المؤشر فوق النقطة لمعرفة اسم المحطة.

ثم انقر لمعرفة أرصاد وتوقعات الطقس.

لتغيير الخارطة: اضغط على الأزرار الخضراء مع رمز الصليب الأسود للتكبير. على الزر الأخضر مع شرطة للتصغير، أو على الأسهم الخضراء للخرائط المجاورة.


METAR-TAF: